createdAt,value
2022-07-27T00:05:40.789Z,100.00
2022-07-27T00:08:43.556Z,100.00
2022-07-27T00:11:46.340Z,100.00
2022-07-27T00:14:49.090Z,100.00
2022-07-27T00:17:51.850Z,100.00
2022-07-27T00:20:56.138Z,100.00
2022-07-27T00:23:58.872Z,100.00
2022-07-27T00:27:01.578Z,100.00
2022-07-27T00:30:05.091Z,100.00
2022-07-27T00:33:08.008Z,100.00
2022-07-27T00:36:12.130Z,100.00
2022-07-27T00:39:15.019Z,100.00
2022-07-27T00:42:21.142Z,100.00
2022-07-27T00:45:23.884Z,100.00
2022-07-27T00:48:29.200Z,100.00
2022-07-27T00:51:33.580Z,100.00
2022-07-27T00:54:36.364Z,100.00
2022-07-27T00:57:59.165Z,100.00
2022-07-27T01:01:02.072Z,100.00
2022-07-27T01:04:06.166Z,100.00
2022-07-27T01:07:10.620Z,100.00
2022-07-27T01:10:13.652Z,100.00
2022-07-27T01:13:17.379Z,100.00
2022-07-27T01:16:21.136Z,100.00
2022-07-27T01:19:23.894Z,100.00
2022-07-27T01:22:28.043Z,100.00
2022-07-27T01:25:30.737Z,100.00
2022-07-27T01:28:33.485Z,100.00
2022-07-27T01:31:36.261Z,100.00
2022-07-27T01:34:39.207Z,100.00
2022-07-27T01:37:47.625Z,100.00
2022-07-27T01:40:51.448Z,100.00
2022-07-27T01:43:54.186Z,100.00
2022-07-27T01:46:56.928Z,100.00
2022-07-27T01:49:59.713Z,100.00
2022-07-27T01:53:03.870Z,100.00
2022-07-27T01:56:10.838Z,100.00
2022-07-27T01:59:15.993Z,100.00
2022-07-27T02:02:19.774Z,100.00
2022-07-27T02:05:22.742Z,100.00
2022-07-27T02:08:26.948Z,100.00
2022-07-27T02:11:47.994Z,100.00
2022-07-27T02:14:50.769Z,100.00
2022-07-27T02:17:54.932Z,100.00
2022-07-27T02:20:57.666Z,100.00
2022-07-27T02:24:01.737Z,100.00
2022-07-27T02:27:04.582Z,100.00
2022-07-27T02:30:08.682Z,100.00
2022-07-27T02:33:11.594Z,100.00
2022-07-27T02:36:14.337Z,100.00
2022-07-27T02:39:18.410Z,100.00
2022-07-27T02:42:21.991Z,100.00
2022-07-27T02:45:24.836Z,100.00
2022-07-27T02:48:27.567Z,100.00
2022-07-27T02:51:30.264Z,100.00
2022-07-27T02:54:34.938Z,100.00
2022-07-27T02:57:41.195Z,100.00
2022-07-27T03:00:44.200Z,100.00
2022-07-27T03:03:47.300Z,100.00
2022-07-27T03:06:50.199Z,100.00
2022-07-27T03:09:54.227Z,100.00
2022-07-27T03:12:57.004Z,100.00
2022-07-27T03:15:59.764Z,100.00
2022-07-27T03:19:02.731Z,100.00
2022-07-27T03:22:05.504Z,100.00
2022-07-27T03:25:10.838Z,100.00
2022-07-27T03:28:13.655Z,100.00
2022-07-27T03:31:16.535Z,100.00
2022-07-27T03:34:19.362Z,100.00
2022-07-27T03:37:22.095Z,100.00
2022-07-27T03:40:26.180Z,100.00
2022-07-27T03:43:28.941Z,100.00
2022-07-27T03:46:31.752Z,100.00
2022-07-27T03:49:34.550Z,100.00
2022-07-27T03:52:37.360Z,100.00
2022-07-27T03:55:41.513Z,100.00
2022-07-27T03:58:44.521Z,100.00
2022-07-27T04:01:47.464Z,100.00
2022-07-27T04:04:50.248Z,100.00
2022-07-27T04:07:54.941Z,100.00
2022-07-27T04:10:59.213Z,100.00
2022-07-27T04:14:03.375Z,100.00
2022-07-27T04:17:06.569Z,100.00
2022-07-27T04:20:10.576Z,100.00
2022-07-27T04:23:13.316Z,100.00
2022-07-27T04:26:17.517Z,100.00
2022-07-27T04:29:21.238Z,100.00
2022-07-27T04:32:24.467Z,100.00
2022-07-27T04:35:27.392Z,100.00
2022-07-27T04:38:30.375Z,100.00
2022-07-27T04:41:34.586Z,100.00
2022-07-27T04:44:37.351Z,100.00
2022-07-27T04:47:40.095Z,100.00
2022-07-27T04:50:43.643Z,100.00
2022-07-27T04:53:52.394Z,100.00
2022-07-27T04:57:02.185Z,100.00
2022-07-27T05:00:05.873Z,100.00
2022-07-27T05:03:09.255Z,100.00
2022-07-27T05:06:12.012Z,100.00
2022-07-27T05:09:15.033Z,100.00
2022-07-27T05:12:26.528Z,100.00
2022-07-27T05:15:29.410Z,100.00
2022-07-27T05:18:52.098Z,100.00
2022-07-27T05:21:54.917Z,100.00
2022-07-27T05:24:57.653Z,100.00
2022-07-27T05:28:01.708Z,100.00
2022-07-27T05:31:04.454Z,100.00
2022-07-27T05:34:07.204Z,100.00
2022-07-27T05:37:10.377Z,100.00
2022-07-27T05:40:13.785Z,100.00
2022-07-27T05:43:17.903Z,100.00
2022-07-27T05:46:21.085Z,100.00
2022-07-27T05:49:24.077Z,100.00
2022-07-27T05:52:26.886Z,100.00
2022-07-27T05:55:29.633Z,100.00
2022-07-27T05:58:33.783Z,100.00
2022-07-27T06:01:36.723Z,100.00
2022-07-27T06:04:39.547Z,100.00
2022-07-27T06:08:00.414Z,100.00
2022-07-27T06:11:03.415Z,100.00
2022-07-27T06:14:07.538Z,100.00
2022-07-27T06:17:11.328Z,100.00
2022-07-27T06:20:14.668Z,100.00
2022-07-27T06:23:17.372Z,100.00
2022-07-27T06:26:20.131Z,100.00
2022-07-27T06:29:24.196Z,100.00
2022-07-27T06:32:26.997Z,100.00
2022-07-27T06:35:29.776Z,100.00
2022-07-27T06:38:33.769Z,100.00
2022-07-27T06:41:36.494Z,100.00
2022-07-27T06:44:43.244Z,100.00
2022-07-27T06:47:49.327Z,100.00
2022-07-27T06:50:53.643Z,100.00
2022-07-27T06:53:56.457Z,100.00
2022-07-27T06:56:59.489Z,100.00
2022-07-27T07:00:03.782Z,100.00
2022-07-27T07:03:07.525Z,100.00
2022-07-27T07:06:10.472Z,100.00
2022-07-27T07:09:13.643Z,100.00
2022-07-27T07:12:18.406Z,100.00
2022-07-27T07:15:22.722Z,100.00
2022-07-27T07:18:28.291Z,100.00
2022-07-27T07:21:31.961Z,100.00
2022-07-27T07:24:34.887Z,100.00
2022-07-27T07:27:38.038Z,100.00
2022-07-27T07:30:42.791Z,100.00
2022-07-27T07:33:46.191Z,100.00
2022-07-27T07:36:48.923Z,100.00
2022-07-27T07:39:51.708Z,100.00
2022-07-27T07:42:57.349Z,100.00
2022-07-27T07:46:01.415Z,100.00
2022-07-27T07:49:04.467Z,100.00
2022-07-27T07:52:07.869Z,100.00
2022-07-27T07:55:11.712Z,100.00
2022-07-27T07:58:14.498Z,100.00
2022-07-27T08:01:18.572Z,100.00
2022-07-27T08:04:21.307Z,100.00
2022-07-27T08:07:24.101Z,100.00
2022-07-27T08:10:28.347Z,100.00
2022-07-27T08:13:31.155Z,100.00
2022-07-27T08:16:35.311Z,100.00
2022-07-27T08:19:40.230Z,100.00
2022-07-27T08:22:44.342Z,100.00
2022-07-27T08:25:48.356Z,100.00
2022-07-27T08:28:51.106Z,100.00
2022-07-27T08:31:55.345Z,100.00
2022-07-27T08:34:59.003Z,100.00
2022-07-27T08:38:03.895Z,100.00
2022-07-27T08:41:09.005Z,100.00
2022-07-27T08:44:15.122Z,100.00
2022-07-27T08:47:22.855Z,100.00
2022-07-27T08:50:27.613Z,100.00
2022-07-27T08:53:42.030Z,100.00
2022-07-27T08:56:55.810Z,100.00
2022-07-27T08:59:59.111Z,100.00
2022-07-27T09:03:04.174Z,100.00
2022-07-27T09:06:07.173Z,100.00
2022-07-27T09:09:10.932Z,100.00
2022-07-27T09:12:14.682Z,100.00
2022-07-27T09:15:18.121Z,100.00
2022-07-27T09:18:24.349Z,100.00
2022-07-27T09:21:28.359Z,100.00
2022-07-27T09:24:46.438Z,100.00
2022-07-27T09:27:54.814Z,100.00
2022-07-27T09:31:07.506Z,100.00
2022-07-27T09:34:13.046Z,100.00
2022-07-27T09:37:25.076Z,100.00
2022-07-27T09:40:28.265Z,100.00
2022-07-27T09:46:58.650Z,98.61
2022-07-27T09:50:20.525Z,96.47
2022-07-27T09:53:42.324Z,96.16
2022-07-27T09:56:46.434Z,98.33
2022-07-27T09:59:49.563Z,95.34
2022-07-27T10:02:54.396Z,97.11
2022-07-27T10:06:00.386Z,96.70
2022-07-27T10:09:04.023Z,96.50
2022-07-27T10:12:08.132Z,95.68
2022-07-27T10:15:16.298Z,94.08
2022-07-27T10:18:29.015Z,94.48
2022-07-27T10:21:35.345Z,94.80
2022-07-27T10:24:38.601Z,93.52
2022-07-27T10:27:41.747Z,94.90
2022-07-27T10:30:47.246Z,95.79
2022-07-27T10:33:56.722Z,90.93
2022-07-27T10:37:09.822Z,90.17
2022-07-27T10:40:35.230Z,88.37
2022-07-27T10:43:38.031Z,89.35
2022-07-27T10:46:44.227Z,88.92
2022-07-27T10:49:47.000Z,90.17
2022-07-27T10:52:53.188Z,89.18
2022-07-27T10:55:56.152Z,88.95
2022-07-27T10:59:01.258Z,90.31
2022-07-27T11:02:07.089Z,91.74
2022-07-27T11:05:32.890Z,89.83
2022-07-27T11:08:46.658Z,89.03
2022-07-27T11:11:50.754Z,84.75
2022-07-27T11:14:56.074Z,82.60
2022-07-27T11:18:03.411Z,84.75
2022-07-27T11:21:16.292Z,86.24
2022-07-27T11:24:23.549Z,85.06
2022-07-27T11:27:26.508Z,84.59
2022-07-27T11:30:30.357Z,84.96
2022-07-27T11:33:34.116Z,80.85
2022-07-27T11:36:42.550Z,79.66
2022-07-27T11:40:00.368Z,79.35
2022-07-27T11:43:05.921Z,79.73
2022-07-27T11:46:14.487Z,79.64
2022-07-27T11:49:21.570Z,79.15
2022-07-27T11:52:25.763Z,79.07
2022-07-27T11:55:29.857Z,78.85
2022-07-27T11:58:32.830Z,77.60
2022-07-27T12:01:38.697Z,78.58
2022-07-27T12:04:42.865Z,78.49
2022-07-27T12:07:45.708Z,78.72
2022-07-27T12:11:02.031Z,78.14
2022-07-27T12:14:12.809Z,76.96
2022-07-27T12:17:19.028Z,77.42
2022-07-27T12:20:24.236Z,74.31
2022-07-27T12:23:30.566Z,73.98
2022-07-27T12:26:34.707Z,75.19
2022-07-27T12:30:00.295Z,74.67
2022-07-27T12:33:04.690Z,75.01
2022-07-27T12:36:09.041Z,73.92
2022-07-27T12:39:26.685Z,75.41
2022-07-27T12:42:37.608Z,75.86
2022-07-27T12:45:40.677Z,73.95
2022-07-27T12:48:44.033Z,74.92
2022-07-27T12:51:46.767Z,75.45
2022-07-27T12:54:49.449Z,74.25
2022-07-27T12:57:56.567Z,73.72
2022-07-27T13:01:00.050Z,74.62
2022-07-27T13:04:02.892Z,73.31
2022-07-27T13:07:05.684Z,74.39
2022-07-27T13:10:11.901Z,73.33
2022-07-27T13:13:15.988Z,71.48
2022-07-27T13:16:18.805Z,71.31
2022-07-27T13:19:21.668Z,70.47
2022-07-27T13:22:24.520Z,72.98
2022-07-27T13:25:27.490Z,71.55
2022-07-27T13:28:31.536Z,74.95
2022-07-27T13:31:34.704Z,75.61
2022-07-27T13:34:37.488Z,74.65
2022-07-27T13:37:42.201Z,75.26
2022-07-27T13:40:45.047Z,72.94
2022-07-27T13:43:49.063Z,72.61
2022-07-27T13:46:52.166Z,71.37
2022-07-27T13:49:56.849Z,71.37
2022-07-27T13:52:59.582Z,72.04
2022-07-27T13:56:03.101Z,71.58
2022-07-27T13:59:07.993Z,70.40
2022-07-27T14:02:11.581Z,69.28
2022-07-27T14:05:15.959Z,69.75
2022-07-27T14:08:20.998Z,70.93
2022-07-27T14:11:23.896Z,70.79
2022-07-27T14:14:27.951Z,70.95
2022-07-27T14:17:30.681Z,71.69
2022-07-27T14:20:33.923Z,70.37
2022-07-27T14:23:38.018Z,70.73
2022-07-27T14:26:40.828Z,68.30
2022-07-27T14:29:44.959Z,67.43
2022-07-27T14:32:47.657Z,67.94
2022-07-27T14:35:50.611Z,68.89
2022-07-27T14:38:53.534Z,68.28
2022-07-27T14:41:56.248Z,68.91
2022-07-27T14:45:00.361Z,70.18
2022-07-27T14:48:03.183Z,70.05
2022-07-27T14:51:06.133Z,69.94
2022-07-27T14:54:08.900Z,69.63
2022-07-27T14:57:11.677Z,70.85
2022-07-27T15:00:17.701Z,70.32
2022-07-27T15:03:21.234Z,71.98
2022-07-27T15:06:24.204Z,71.83
2022-07-27T15:09:28.509Z,72.55
2022-07-27T15:12:33.775Z,72.09
2022-07-27T15:15:41.754Z,72.47
2022-07-27T15:18:45.681Z,71.11
2022-07-27T15:21:48.638Z,72.45
2022-07-27T15:24:52.612Z,72.24
2022-07-27T15:27:55.309Z,72.89
2022-07-27T15:30:59.455Z,74.60
2022-07-27T15:34:02.271Z,73.66
2022-07-27T15:37:07.493Z,73.64
2022-07-27T15:40:29.381Z,75.79
2022-07-27T15:43:32.131Z,74.14
2022-07-27T15:46:36.394Z,74.66
2022-07-27T15:49:39.136Z,74.62
2022-07-27T15:52:41.883Z,74.50
2022-07-27T15:55:45.751Z,73.74
2022-07-27T15:58:48.478Z,73.24
2022-07-27T16:01:52.553Z,73.25
2022-07-27T16:04:56.483Z,72.58
2022-07-27T16:07:59.198Z,73.46
2022-07-27T16:11:01.952Z,72.96
2022-07-27T16:14:04.704Z,70.63
2022-07-27T16:17:08.783Z,71.07
2022-07-27T16:20:12.122Z,69.93
2022-07-27T16:23:21.183Z,69.77
2022-07-27T16:26:25.246Z,70.24
2022-07-27T16:29:28.437Z,69.82
2022-07-27T16:32:32.551Z,69.05
2022-07-27T16:35:35.256Z,65.69
2022-07-27T16:38:39.133Z,66.81
2022-07-27T16:41:53.072Z,67.33
2022-07-27T16:44:56.362Z,64.87
2022-07-27T16:48:00.656Z,65.39
2022-07-27T16:51:03.630Z,65.14
2022-07-27T16:54:09.173Z,66.80
2022-07-27T16:57:11.885Z,67.28
2022-07-27T17:00:16.341Z,67.31
2022-07-27T17:03:20.856Z,67.53
2022-07-27T17:06:24.415Z,67.07
2022-07-27T17:09:28.634Z,67.83
2022-07-27T17:12:38.122Z,67.08
2022-07-27T17:15:42.101Z,67.87
2022-07-27T17:18:46.303Z,67.80
2022-07-27T17:21:49.061Z,68.94
2022-07-27T17:24:51.822Z,69.49
2022-07-27T17:27:54.524Z,68.22
2022-07-27T17:30:57.321Z,68.79
2022-07-27T17:34:01.589Z,69.12
2022-07-27T17:37:04.396Z,69.21
2022-07-27T17:40:08.082Z,68.48
2022-07-27T17:43:10.900Z,69.30
2022-07-27T17:46:13.815Z,69.71
2022-07-27T17:49:18.624Z,69.44
2022-07-27T17:52:22.363Z,66.99
2022-07-27T17:55:25.412Z,67.59
2022-07-27T17:58:30.438Z,67.95
2022-07-27T18:01:47.401Z,67.36
2022-07-27T18:04:52.835Z,68.02
2022-07-27T18:07:55.608Z,68.20
2022-07-27T18:10:58.444Z,68.57
2022-07-27T18:14:01.252Z,68.22
2022-07-27T18:17:03.977Z,69.27
2022-07-27T18:20:10.576Z,71.13
2022-07-27T18:23:14.159Z,70.81
2022-07-27T18:26:17.006Z,70.79
2022-07-27T18:29:19.718Z,70.83
2022-07-27T18:32:22.420Z,70.88
2022-07-27T18:35:26.573Z,70.55
2022-07-27T18:38:29.289Z,70.74
2022-07-27T18:41:32.253Z,71.15
2022-07-27T18:44:39.132Z,72.04
2022-07-27T18:47:41.938Z,72.73
2022-07-27T18:50:53.936Z,77.06
2022-07-27T18:53:56.674Z,78.53
2022-07-27T18:56:59.932Z,78.53
2022-07-27T19:00:02.962Z,80.28
2022-07-27T19:03:06.128Z,81.28
2022-07-27T19:06:17.911Z,82.53
2022-07-27T19:09:21.497Z,81.47
2022-07-27T19:12:24.430Z,82.78
2022-07-27T19:15:27.369Z,85.54
2022-07-27T19:18:30.107Z,87.15
2022-07-27T19:21:34.163Z,88.54
2022-07-27T19:24:36.884Z,89.58
2022-07-27T19:27:42.895Z,87.82
2022-07-27T19:30:46.462Z,88.12
2022-07-27T19:33:49.203Z,87.42
2022-07-27T19:36:53.268Z,88.73
2022-07-27T19:40:02.361Z,90.09
2022-07-27T19:43:12.465Z,92.00
2022-07-27T19:46:15.347Z,93.75
2022-07-27T19:49:18.698Z,93.45
2022-07-27T19:52:23.126Z,94.25
2022-07-27T19:55:25.988Z,93.97
2022-07-27T19:58:28.746Z,94.45
2022-07-27T20:01:31.502Z,91.79
2022-07-27T20:04:37.275Z,92.17
2022-07-27T20:07:46.508Z,93.11
2022-07-27T20:10:49.304Z,96.52
2022-07-27T20:13:52.140Z,96.01
2022-07-27T20:16:54.909Z,94.57
2022-07-27T20:19:57.662Z,96.49
2022-07-27T20:23:01.767Z,99.48
2022-07-27T20:26:04.586Z,99.88
2022-07-27T20:29:07.690Z,100.00
2022-07-27T20:32:10.390Z,100.00
2022-07-27T20:35:13.122Z,100.00
2022-07-27T20:38:17.182Z,100.00
2022-07-27T20:41:19.938Z,100.00
2022-07-27T20:44:22.791Z,100.00
2022-07-27T20:47:27.827Z,100.00
2022-07-27T20:50:32.606Z,100.00
2022-07-27T20:53:36.647Z,100.00
2022-07-27T20:56:39.402Z,100.00
2022-07-27T20:59:42.120Z,100.00
2022-07-27T21:02:45.184Z,100.00
2022-07-27T21:05:47.960Z,100.00
2022-07-27T21:08:52.228Z,100.00
2022-07-27T21:11:54.992Z,100.00
2022-07-27T21:14:58.265Z,100.00
2022-07-27T21:18:01.355Z,100.00
2022-07-27T21:21:04.343Z,100.00
2022-07-27T21:24:19.970Z,100.00
2022-07-27T21:27:23.109Z,100.00
2022-07-27T21:30:25.909Z,100.00
2022-07-27T21:33:28.734Z,100.00
2022-07-27T21:36:31.575Z,100.00
2022-07-27T21:39:36.221Z,100.00
2022-07-27T21:42:39.576Z,100.00
2022-07-27T21:45:47.958Z,100.00
2022-07-27T21:48:52.625Z,100.00
2022-07-27T21:51:55.437Z,100.00
2022-07-27T21:54:59.927Z,100.00
2022-07-27T21:58:02.642Z,100.00
2022-07-27T22:01:05.393Z,100.00
2022-07-27T22:04:09.730Z,100.00
2022-07-27T22:07:16.794Z,100.00
2022-07-27T22:10:23.831Z,100.00
2022-07-27T22:13:26.636Z,100.00
2022-07-27T22:16:29.423Z,100.00
2022-07-27T22:19:32.259Z,100.00
2022-07-27T22:22:35.306Z,100.00
2022-07-27T22:25:39.565Z,100.00
2022-07-27T22:28:42.448Z,100.00
2022-07-27T22:31:45.238Z,100.00
2022-07-27T22:34:47.986Z,100.00
2022-07-27T22:37:50.909Z,100.00
2022-07-27T22:40:54.969Z,100.00
2022-07-27T22:43:57.678Z,100.00
2022-07-27T22:47:00.398Z,100.00
2022-07-27T22:50:04.299Z,100.00
2022-07-27T22:53:07.411Z,100.00
2022-07-27T22:56:11.473Z,100.00
2022-07-27T22:59:14.503Z,100.00
2022-07-27T23:02:17.251Z,100.00
2022-07-27T23:05:20.064Z,100.00
2022-07-27T23:08:22.832Z,100.00
2022-07-27T23:11:26.914Z,100.00
2022-07-27T23:14:31.031Z,100.00
2022-07-27T23:17:33.785Z,100.00
2022-07-27T23:20:37.288Z,100.00
2022-07-27T23:23:49.933Z,100.00
2022-07-27T23:26:58.209Z,100.00
2022-07-27T23:30:01.185Z,100.00
2022-07-27T23:33:03.914Z,100.00
2022-07-27T23:36:06.780Z,100.00
2022-07-27T23:39:09.587Z,100.00
2022-07-27T23:42:13.702Z,100.00
2022-07-27T23:45:16.543Z,100.00
2022-07-27T23:48:19.284Z,100.00
2022-07-27T23:51:22.063Z,100.00
2022-07-27T23:54:24.774Z,100.00
2022-07-27T23:57:29.342Z,100.00
